sensor_id;sensor_type;location;lat;lon;timestamp;P1;durP1;ratioP1;P2;durP2;ratioP2
23720;SDS011;42950;52.134;5.578;2023-02-18T00:01:23;64.68;;;33.53;;
23720;SDS011;42950;52.134;5.578;2023-02-18T00:03:49;68.90;;;34.42;;
23720;SDS011;42950;52.134;5.578;2023-02-18T00:06:17;76.13;;;35.45;;
23720;SDS011;42950;52.134;5.578;2023-02-18T00:08:47;71.72;;;34.78;;
23720;SDS011;42950;52.134;5.578;2023-02-18T00:11:13;76.38;;;35.65;;
23720;SDS011;42950;52.134;5.578;2023-02-18T00:13:39;72.15;;;33.90;;
23720;SDS011;42950;52.134;5.578;2023-02-18T00:16:07;71.25;;;34.92;;
23720;SDS011;42950;52.134;5.578;2023-02-18T00:18:35;72.43;;;34.47;;
23720;SDS011;42950;52.134;5.578;2023-02-18T00:21:02;82.07;;;35.92;;
23720;SDS011;42950;52.134;5.578;2023-02-18T00:23:29;78.85;;;35.42;;
23720;SDS011;42950;52.134;5.578;2023-02-18T00:25:59;72.30;;;34.80;;
23720;SDS011;42950;52.134;5.578;2023-02-18T00:28:25;78.72;;;35.30;;
23720;SDS011;42950;52.134;5.578;2023-02-18T00:30:51;81.18;;;35.33;;
23720;SDS011;42950;52.134;5.578;2023-02-18T00:33:16;74.10;;;35.20;;
23720;SDS011;42950;52.134;5.578;2023-02-18T00:35:42;86.40;;;37.90;;
23720;SDS011;42950;52.134;5.578;2023-02-18T00:38:07;75.80;;;36.13;;
23720;SDS011;42950;52.134;5.578;2023-02-18T00:40:36;78.13;;;35.53;;
23720;SDS011;42950;52.134;5.578;2023-02-18T00:43:02;75.97;;;36.72;;
23720;SDS011;42950;52.134;5.578;2023-02-18T00:45:28;74.75;;;35.70;;
23720;SDS011;42950;52.134;5.578;2023-02-18T00:47:53;77.95;;;37.63;;
23720;SDS011;42950;52.134;5.578;2023-02-18T00:50:19;79.85;;;35.67;;
23720;SDS011;42950;52.134;5.578;2023-02-18T00:52:44;86.80;;;38.30;;
23720;SDS011;42950;52.134;5.578;2023-02-18T00:55:10;93.40;;;37.67;;
23720;SDS011;42950;52.134;5.578;2023-02-18T00:57:35;80.15;;;37.03;;
23720;SDS011;42950;52.134;5.578;2023-02-18T01:00:02;83.28;;;37.08;;
23720;SDS011;42950;52.134;5.578;2023-02-18T01:02:29;96.05;;;37.60;;
23720;SDS011;42950;52.134;5.578;2023-02-18T01:04:54;105.38;;;39.38;;
23720;SDS011;42950;52.134;5.578;2023-02-18T01:07:20;102.57;;;36.80;;
23720;SDS011;42950;52.134;5.578;2023-02-18T01:09:46;94.95;;;37.78;;
23720;SDS011;42950;52.134;5.578;2023-02-18T01:12:11;96.35;;;38.08;;
23720;SDS011;42950;52.134;5.578;2023-02-18T01:14:37;104.57;;;37.35;;
23720;SDS011;42950;52.134;5.578;2023-02-18T01:17:02;95.32;;;37.05;;
23720;SDS011;42950;52.134;5.578;2023-02-18T01:19:28;89.88;;;37.05;;
23720;SDS011;42950;52.134;5.578;2023-02-18T01:21:53;95.80;;;37.35;;
23720;SDS011;42950;52.134;5.578;2023-02-18T01:24:19;102.38;;;37.22;;
23720;SDS011;42950;52.134;5.578;2023-02-18T01:26:45;97.47;;;35.38;;
23720;SDS011;42950;52.134;5.578;2023-02-18T01:29:10;102.22;;;37.88;;
23720;SDS011;42950;52.134;5.578;2023-02-18T01:31:36;114.40;;;38.70;;
23720;SDS011;42950;52.134;5.578;2023-02-18T01:34:01;109.47;;;38.78;;
23720;SDS011;42950;52.134;5.578;2023-02-18T01:36:27;109.10;;;39.35;;
23720;SDS011;42950;52.134;5.578;2023-02-18T01:38:52;108.68;;;37.45;;
23720;SDS011;42950;52.134;5.578;2023-02-18T01:41:18;92.35;;;34.67;;
23720;SDS011;42950;52.134;5.578;2023-02-18T01:43:44;100.53;;;35.60;;
23720;SDS011;42950;52.134;5.578;2023-02-18T01:46:18;101.10;;;35.03;;
23720;SDS011;42950;52.134;5.578;2023-02-18T01:48:55;87.55;;;33.42;;
23720;SDS011;42950;52.134;5.578;2023-02-18T01:51:25;91.72;;;31.65;;
23720;SDS011;42950;52.134;5.578;2023-02-18T01:54:00;79.22;;;30.02;;
23720;SDS011;42950;52.134;5.578;2023-02-18T01:56:41;75.05;;;31.40;;
23720;SDS011;42950;52.134;5.578;2023-02-18T01:59:41;87.43;;;30.92;;
23720;SDS011;42950;52.134;5.578;2023-02-18T02:02:14;77.97;;;30.75;;
23720;SDS011;42950;52.134;5.578;2023-02-18T02:04:43;85.07;;;31.00;;
23720;SDS011;42950;52.134;5.578;2023-02-18T02:07:09;77.53;;;29.02;;
23720;SDS011;42950;52.134;5.578;2023-02-18T02:09:35;66.80;;;28.40;;
23720;SDS011;42950;52.134;5.578;2023-02-18T02:17:44;87.35;;;30.40;;
23720;SDS011;42950;52.134;5.578;2023-02-18T02:35:09;95.22;;;33.10;;
23720;SDS011;42950;52.134;5.578;2023-02-18T02:37:45;95.88;;;34.90;;
23720;SDS011;42950;52.134;5.578;2023-02-18T02:51:24;99.18;;;35.53;;
23720;SDS011;42950;52.134;5.578;2023-02-18T02:56:41;97.25;;;34.83;;
23720;SDS011;42950;52.134;5.578;2023-02-18T02:59:09;102.88;;;36.00;;
23720;SDS011;42950;52.134;5.578;2023-02-18T03:12:46;105.70;;;35.63;;
23720;SDS011;42950;52.134;5.578;2023-02-18T03:18:31;102.15;;;35.80;;
23720;SDS011;42950;52.134;5.578;2023-02-18T03:21:11;96.53;;;33.95;;
23720;SDS011;42950;52.134;5.578;2023-02-18T03:23:56;99.32;;;35.40;;
23720;SDS011;42950;52.134;5.578;2023-02-18T03:26:26;107.15;;;37.30;;
23720;SDS011;42950;52.134;5.578;2023-02-18T03:28:54;97.35;;;36.22;;
23720;SDS011;42950;52.134;5.578;2023-02-18T03:31:25;94.57;;;33.40;;
23720;SDS011;42950;52.134;5.578;2023-02-18T03:33:58;87.13;;;33.78;;
23720;SDS011;42950;52.134;5.578;2023-02-18T03:36:27;85.13;;;32.60;;
23720;SDS011;42950;52.134;5.578;2023-02-18T03:38:59;78.35;;;30.92;;
23720;SDS011;42950;52.134;5.578;2023-02-18T03:41:31;74.22;;;29.38;;
23720;SDS011;42950;52.134;5.578;2023-02-18T03:43:58;71.32;;;26.83;;
23720;SDS011;42950;52.134;5.578;2023-02-18T03:46:26;63.33;;;25.92;;
23720;SDS011;42950;52.134;5.578;2023-02-18T03:48:52;54.55;;;22.95;;
23720;SDS011;42950;52.134;5.578;2023-02-18T03:51:18;51.03;;;21.77;;
23720;SDS011;42950;52.134;5.578;2023-02-18T03:53:44;46.30;;;18.95;;
23720;SDS011;42950;52.134;5.578;2023-02-18T03:56:10;43.40;;;19.10;;
23720;SDS011;42950;52.134;5.578;2023-02-18T03:58:36;39.58;;;17.88;;
23720;SDS011;42950;52.134;5.578;2023-02-18T04:01:03;41.58;;;17.60;;
23720;SDS011;42950;52.134;5.578;2023-02-18T04:03:28;39.17;;;16.83;;
23720;SDS011;42950;52.134;5.578;2023-02-18T04:05:54;34.90;;;15.38;;
23720;SDS011;42950;52.134;5.578;2023-02-18T04:08:19;32.05;;;14.98;;
23720;SDS011;42950;52.134;5.578;2023-02-18T04:10:45;31.85;;;14.43;;
23720;SDS011;42950;52.134;5.578;2023-02-18T04:13:11;30.10;;;14.07;;
23720;SDS011;42950;52.134;5.578;2023-02-18T04:15:37;22.85;;;11.60;;
23720;SDS011;42950;52.134;5.578;2023-02-18T04:18:03;28.23;;;12.43;;
23720;SDS011;42950;52.134;5.578;2023-02-18T04:20:28;26.88;;;12.45;;
23720;SDS011;42950;52.134;5.578;2023-02-18T04:22:54;21.58;;;10.80;;
23720;SDS011;42950;52.134;5.578;2023-02-18T04:25:20;19.17;;;10.48;;
23720;SDS011;42950;52.134;5.578;2023-02-18T04:27:45;18.83;;;10.20;;
23720;SDS011;42950;52.134;5.578;2023-02-18T04:30:11;18.55;;;9.90;;
23720;SDS011;42950;52.134;5.578;2023-02-18T04:32:37;16.75;;;9.30;;
23720;SDS011;42950;52.134;5.578;2023-02-18T04:35:03;14.85;;;8.40;;
23720;SDS011;42950;52.134;5.578;2023-02-18T04:37:29;16.17;;;9.02;;
23720;SDS011;42950;52.134;5.578;2023-02-18T04:39:54;17.27;;;9.23;;
23720;SDS011;42950;52.134;5.578;2023-02-18T04:42:20;12.55;;;7.35;;
23720;SDS011;42950;52.134;5.578;2023-02-18T04:44:45;12.25;;;7.68;;
23720;SDS011;42950;52.134;5.578;2023-02-18T04:47:11;11.70;;;7.57;;
23720;SDS011;42950;52.134;5.578;2023-02-18T04:49:36;12.27;;;7.40;;
23720;SDS011;42950;52.134;5.578;2023-02-18T04:52:02;10.27;;;6.90;;
23720;SDS011;42950;52.134;5.578;2023-02-18T04:54:28;10.48;;;6.50;;
23720;SDS011;42950;52.134;5.578;2023-02-18T04:56:54;10.07;;;6.90;;
23720;SDS011;42950;52.134;5.578;2023-02-18T04:59:19;9.07;;;6.78;;
23720;SDS011;42950;52.134;5.578;2023-02-18T05:01:45;11.05;;;6.63;;
23720;SDS011;42950;52.134;5.578;2023-02-18T05:04:11;9.68;;;6.32;;
23720;SDS011;42950;52.134;5.578;2023-02-18T05:06:36;8.65;;;6.13;;
23720;SDS011;42950;52.134;5.578;2023-02-18T05:09:03;8.18;;;6.38;;
23720;SDS011;42950;52.134;5.578;2023-02-18T05:11:29;9.32;;;6.68;;
23720;SDS011;42950;52.134;5.578;2023-02-18T05:13:55;9.77;;;7.25;;
23720;SDS011;42950;52.134;5.578;2023-02-18T05:16:21;9.88;;;7.03;;
23720;SDS011;42950;52.134;5.578;2023-02-18T05:18:46;12.10;;;8.57;;
23720;SDS011;42950;52.134;5.578;2023-02-18T05:21:12;13.35;;;8.88;;
23720;SDS011;42950;52.134;5.578;2023-02-18T05:23:37;12.55;;;9.50;;
23720;SDS011;42950;52.134;5.578;2023-02-18T05:26:03;14.98;;;9.90;;
23720;SDS011;42950;52.134;5.578;2023-02-18T05:28:28;14.85;;;9.75;;
23720;SDS011;42950;52.134;5.578;2023-02-18T05:30:54;15.32;;;9.38;;
23720;SDS011;42950;52.134;5.578;2023-02-18T05:33:20;13.05;;;8.85;;
23720;SDS011;42950;52.134;5.578;2023-02-18T05:35:45;14.27;;;8.95;;
23720;SDS011;42950;52.134;5.578;2023-02-18T05:38:12;11.75;;;8.65;;
23720;SDS011;42950;52.134;5.578;2023-02-18T05:40:37;12.75;;;8.38;;
23720;SDS011;42950;52.134;5.578;2023-02-18T05:43:03;11.50;;;8.60;;
23720;SDS011;42950;52.134;5.578;2023-02-18T05:45:28;13.32;;;8.55;;
23720;SDS011;42950;52.134;5.578;2023-02-18T05:47:54;14.77;;;8.52;;
23720;SDS011;42950;52.134;5.578;2023-02-18T05:50:20;12.48;;;9.63;;
23720;SDS011;42950;52.134;5.578;2023-02-18T05:52:45;14.00;;;10.13;;
23720;SDS011;42950;52.134;5.578;2023-02-18T05:55:11;17.13;;;10.57;;
23720;SDS011;42950;52.134;5.578;2023-02-18T05:57:36;18.52;;;11.77;;
23720;SDS011;42950;52.134;5.578;2023-02-18T06:00:03;22.45;;;13.43;;
23720;SDS011;42950;52.134;5.578;2023-02-18T06:02:30;22.52;;;14.57;;
23720;SDS011;42950;52.134;5.578;2023-02-18T06:04:55;25.70;;;17.50;;
23720;SDS011;42950;52.134;5.578;2023-02-18T06:07:21;27.05;;;18.27;;
23720;SDS011;42950;52.134;5.578;2023-02-18T06:09:47;29.15;;;19.08;;
23720;SDS011;42950;52.134;5.578;2023-02-18T06:12:12;28.30;;;18.05;;
23720;SDS011;42950;52.134;5.578;2023-02-18T06:14:38;25.50;;;16.88;;
23720;SDS011;42950;52.134;5.578;2023-02-18T06:17:06;22.98;;;16.67;;
23720;SDS011;42950;52.134;5.578;2023-02-18T06:19:33;22.20;;;15.80;;
23720;SDS011;42950;52.134;5.578;2023-02-18T06:21:58;22.27;;;15.82;;
23720;SDS011;42950;52.134;5.578;2023-02-18T06:24:24;24.23;;;17.30;;
23720;SDS011;42950;52.134;5.578;2023-02-18T06:26:50;24.20;;;16.92;;
23720;SDS011;42950;52.134;5.578;2023-02-18T06:29:15;25.17;;;17.20;;
23720;SDS011;42950;52.134;5.578;2023-02-18T06:31:41;24.20;;;17.20;;
23720;SDS011;42950;52.134;5.578;2023-02-18T06:34:06;27.70;;;18.50;;
23720;SDS011;42950;52.134;5.578;2023-02-18T06:36:32;26.33;;;18.17;;
23720;SDS011;42950;52.134;5.578;2023-02-18T06:38:57;28.05;;;17.85;;
23720;SDS011;42950;52.134;5.578;2023-02-18T06:41:23;25.73;;;18.73;;
23720;SDS011;42950;52.134;5.578;2023-02-18T06:43:49;26.40;;;19.23;;
23720;SDS011;42950;52.134;5.578;2023-02-18T06:46:15;28.58;;;19.05;;
23720;SDS011;42950;52.134;5.578;2023-02-18T06:48:41;34.92;;;19.25;;
23720;SDS011;42950;52.134;5.578;2023-02-18T06:51:06;30.13;;;18.98;;
23720;SDS011;42950;52.134;5.578;2023-02-18T06:53:32;31.48;;;17.23;;
23720;SDS011;42950;52.134;5.578;2023-02-18T06:55:58;25.45;;;15.88;;
23720;SDS011;42950;52.134;5.578;2023-02-18T06:58:25;24.20;;;14.57;;
23720;SDS011;42950;52.134;5.578;2023-02-18T07:00:51;24.38;;;13.88;;
23720;SDS011;42950;52.134;5.578;2023-02-18T07:03:16;23.42;;;14.05;;
23720;SDS011;42950;52.134;5.578;2023-02-18T07:05:42;23.60;;;14.02;;
23720;SDS011;42950;52.134;5.578;2023-02-18T07:08:08;22.45;;;13.68;;
23720;SDS011;42950;52.134;5.578;2023-02-18T07:10:33;21.88;;;13.88;;
23720;SDS011;42950;52.134;5.578;2023-02-18T07:12:59;24.77;;;14.45;;
23720;SDS011;42950;52.134;5.578;2023-02-18T07:15:25;28.00;;;15.43;;
23720;SDS011;42950;52.134;5.578;2023-02-18T07:17:52;30.02;;;16.55;;
23720;SDS011;42950;52.134;5.578;2023-02-18T07:20:19;31.40;;;17.38;;
23720;SDS011;42950;52.134;5.578;2023-02-18T07:22:45;34.53;;;19.42;;
23720;SDS011;42950;52.134;5.578;2023-02-18T07:25:11;35.65;;;18.63;;
23720;SDS011;42950;52.134;5.578;2023-02-18T07:27:37;35.70;;;20.25;;
23720;SDS011;42950;52.134;5.578;2023-02-18T07:30:03;36.03;;;19.52;;
23720;SDS011;42950;52.134;5.578;2023-02-18T07:32:29;36.92;;;20.77;;
23720;SDS011;42950;52.134;5.578;2023-02-18T07:34:55;36.53;;;22.00;;
23720;SDS011;42950;52.134;5.578;2023-02-18T07:37:21;35.65;;;21.20;;
23720;SDS011;42950;52.134;5.578;2023-02-18T07:39:46;35.10;;;20.73;;
23720;SDS011;42950;52.134;5.578;2023-02-18T07:42:12;37.13;;;20.50;;
23720;SDS011;42950;52.134;5.578;2023-02-18T07:44:38;35.85;;;20.52;;
23720;SDS011;42950;52.134;5.578;2023-02-18T07:47:05;31.80;;;19.00;;
23720;SDS011;42950;52.134;5.578;2023-02-18T07:49:32;34.58;;;18.48;;
23720;SDS011;42950;52.134;5.578;2023-02-18T07:51:58;34.50;;;18.70;;
23720;SDS011;42950;52.134;5.578;2023-02-18T07:54:24;31.33;;;16.75;;
23720;SDS011;42950;52.134;5.578;2023-02-18T07:56:49;33.20;;;17.50;;
23720;SDS011;42950;52.134;5.578;2023-02-18T07:59:15;31.20;;;17.15;;
23720;SDS011;42950;52.134;5.578;2023-02-18T08:01:41;34.45;;;16.48;;
23720;SDS011;42950;52.134;5.578;2023-02-18T08:04:07;31.42;;;15.52;;
23720;SDS011;42950;52.134;5.578;2023-02-18T08:06:34;33.38;;;14.40;;
23720;SDS011;42950;52.134;5.578;2023-02-18T08:09:01;31.98;;;13.38;;
23720;SDS011;42950;52.134;5.578;2023-02-18T08:11:27;29.83;;;11.90;;
23720;SDS011;42950;52.134;5.578;2023-02-18T08:13:53;30.15;;;12.35;;
23720;SDS011;42950;52.134;5.578;2023-02-18T08:16:19;33.65;;;11.63;;
23720;SDS011;42950;52.134;5.578;2023-02-18T08:18:45;32.10;;;11.43;;
23720;SDS011;42950;52.134;5.578;2023-02-18T08:21:12;26.90;;;10.50;;
23720;SDS011;42950;52.134;5.578;2023-02-18T08:23:39;29.15;;;10.35;;
23720;SDS011;42950;52.134;5.578;2023-02-18T08:26:04;27.80;;;8.57;;
23720;SDS011;42950;52.134;5.578;2023-02-18T08:28:30;33.03;;;9.05;;
23720;SDS011;42950;52.134;5.578;2023-02-18T08:30:56;34.42;;;8.65;;
23720;SDS011;42950;52.134;5.578;2023-02-18T08:33:22;27.33;;;8.30;;
23720;SDS011;42950;52.134;5.578;2023-02-18T08:35:49;38.05;;;8.48;;
23720;SDS011;42950;52.134;5.578;2023-02-18T08:38:16;31.73;;;8.13;;
23720;SDS011;42950;52.134;5.578;2023-02-18T08:40:42;39.00;;;7.90;;
23720;SDS011;42950;52.134;5.578;2023-02-18T08:43:07;41.58;;;8.38;;
23720;SDS011;42950;52.134;5.578;2023-02-18T08:45:33;33.20;;;7.32;;
23720;SDS011;42950;52.134;5.578;2023-02-18T08:48:01;33.95;;;6.40;;
23720;SDS011;42950;52.134;5.578;2023-02-18T08:50:27;26.50;;;6.35;;
23720;SDS011;42950;52.134;5.578;2023-02-18T08:52:53;25.80;;;6.18;;
23720;SDS011;42950;52.134;5.578;2023-02-18T08:55:20;24.17;;;5.45;;
23720;SDS011;42950;52.134;5.578;2023-02-18T08:57:48;25.27;;;5.63;;
23720;SDS011;42950;52.134;5.578;2023-02-18T09:00:14;32.05;;;5.57;;
23720;SDS011;42950;52.134;5.578;2023-02-18T09:02:41;28.58;;;5.65;;
23720;SDS011;42950;52.134;5.578;2023-02-18T09:05:07;25.20;;;5.32;;
23720;SDS011;42950;52.134;5.578;2023-02-18T09:07:34;25.73;;;5.35;;
23720;SDS011;42950;52.134;5.578;2023-02-18T09:10:00;20.58;;;4.85;;
23720;SDS011;42950;52.134;5.578;2023-02-18T09:12:26;23.92;;;5.15;;
23720;SDS011;42950;52.134;5.578;2023-02-18T09:14:52;24.23;;;5.13;;
23720;SDS011;42950;52.134;5.578;2023-02-18T09:17:18;22.58;;;5.07;;
23720;SDS011;42950;52.134;5.578;2023-02-18T09:19:43;20.30;;;4.70;;
23720;SDS011;42950;52.134;5.578;2023-02-18T09:22:09;27.27;;;5.30;;
23720;SDS011;42950;52.134;5.578;2023-02-18T09:24:38;20.10;;;4.65;;
23720;SDS011;42950;52.134;5.578;2023-02-18T09:27:04;23.52;;;5.07;;
23720;SDS011;42950;52.134;5.578;2023-02-18T09:29:31;27.00;;;5.22;;
23720;SDS011;42950;52.134;5.578;2023-02-18T09:32:00;20.65;;;4.97;;
23720;SDS011;42950;52.134;5.578;2023-02-18T09:34:26;19.77;;;4.60;;
23720;SDS011;42950;52.134;5.578;2023-02-18T09:36:52;21.85;;;4.28;;
23720;SDS011;42950;52.134;5.578;2023-02-18T09:39:18;19.42;;;4.20;;
23720;SDS011;42950;52.134;5.578;2023-02-18T09:41:44;20.45;;;4.30;;
23720;SDS011;42950;52.134;5.578;2023-02-18T09:46:45;20.15;;;4.00;;
23720;SDS011;42950;52.134;5.578;2023-02-18T09:49:15;20.52;;;3.92;;
23720;SDS011;42950;52.134;5.578;2023-02-18T09:51:49;17.35;;;4.18;;
23720;SDS011;42950;52.134;5.578;2023-02-18T09:54:17;21.45;;;3.88;;
23720;SDS011;42950;52.134;5.578;2023-02-18T09:56:44;18.27;;;4.20;;
23720;SDS011;42950;52.134;5.578;2023-02-18T09:59:20;19.55;;;4.55;;
23720;SDS011;42950;52.134;5.578;2023-02-18T10:01:49;15.15;;;4.15;;
23720;SDS011;42950;52.134;5.578;2023-02-18T10:04:58;20.42;;;5.10;;
23720;SDS011;42950;52.134;5.578;2023-02-18T10:07:11;24.02;;;4.32;;
23720;SDS011;42950;52.134;5.578;2023-02-18T10:09:46;21.67;;;4.43;;
23720;SDS011;42950;52.134;5.578;2023-02-18T10:14:51;21.80;;;4.43;;
23720;SDS011;42950;52.134;5.578;2023-02-18T10:17:23;17.02;;;3.88;;
23720;SDS011;42950;52.134;5.578;2023-02-18T10:19:51;17.73;;;4.10;;
23720;SDS011;42950;52.134;5.578;2023-02-18T10:22:18;23.50;;;4.47;;
23720;SDS011;42950;52.134;5.578;2023-02-18T10:24:50;18.73;;;4.72;;
23720;SDS011;42950;52.134;5.578;2023-02-18T10:27:24;20.20;;;4.35;;
23720;SDS011;42950;52.134;5.578;2023-02-18T10:30:20;19.77;;;3.97;;
23720;SDS011;42950;52.134;5.578;2023-02-18T10:32:46;19.50;;;4.70;;
23720;SDS011;42950;52.134;5.578;2023-02-18T10:35:24;24.25;;;4.63;;
23720;SDS011;42950;52.134;5.578;2023-02-18T10:38:11;21.02;;;4.15;;
23720;SDS011;42950;52.134;5.578;2023-02-18T10:40:57;17.75;;;4.28;;
23720;SDS011;42950;52.134;5.578;2023-02-18T10:46:19;22.80;;;4.25;;
23720;SDS011;42950;52.134;5.578;2023-02-18T10:52:13;17.63;;;3.65;;
23720;SDS011;42950;52.134;5.578;2023-02-18T10:57:22;19.40;;;4.10;;
23720;SDS011;42950;52.134;5.578;2023-02-18T10:59:59;23.13;;;4.45;;
23720;SDS011;42950;52.134;5.578;2023-02-18T11:02:35;21.85;;;4.55;;
23720;SDS011;42950;52.134;5.578;2023-02-18T11:05:05;17.83;;;4.30;;
23720;SDS011;42950;52.134;5.578;2023-02-18T11:07:45;19.33;;;4.50;;
23720;SDS011;42950;52.134;5.578;2023-02-18T11:12:50;17.73;;;3.70;;
23720;SDS011;42950;52.134;5.578;2023-02-18T11:15:25;25.17;;;4.15;;
23720;SDS011;42950;52.134;5.578;2023-02-18T11:17:53;22.20;;;3.88;;
23720;SDS011;42950;52.134;5.578;2023-02-18T11:23:19;21.20;;;4.32;;
23720;SDS011;42950;52.134;5.578;2023-02-18T11:26:20;18.92;;;4.05;;
23720;SDS011;42950;52.134;5.578;2023-02-18T11:28:43;28.20;;;4.40;;
23720;SDS011;42950;52.134;5.578;2023-02-18T11:31:15;20.98;;;6.13;;
23720;SDS011;42950;52.134;5.578;2023-02-18T11:33:49;19.42;;;4.85;;
23720;SDS011;42950;52.134;5.578;2023-02-18T11:36:27;21.83;;;4.60;;
23720;SDS011;42950;52.134;5.578;2023-02-18T11:39:05;20.98;;;4.35;;
23720;SDS011;42950;52.134;5.578;2023-02-18T11:41:46;18.15;;;3.30;;
23720;SDS011;42950;52.134;5.578;2023-02-18T11:44:33;19.85;;;3.95;;
23720;SDS011;42950;52.134;5.578;2023-02-18T11:49:34;18.13;;;4.18;;
23720;SDS011;42950;52.134;5.578;2023-02-18T11:57:37;20.95;;;3.67;;
23720;SDS011;42950;52.134;5.578;2023-02-18T12:00:14;20.83;;;4.55;;
23720;SDS011;42950;52.134;5.578;2023-02-18T12:02:49;17.60;;;3.97;;
23720;SDS011;42950;52.134;5.578;2023-02-18T12:05:21;18.52;;;4.35;;
23720;SDS011;42950;52.134;5.578;2023-02-18T12:13:26;17.40;;;3.80;;
23720;SDS011;42950;52.134;5.578;2023-02-18T12:29:15;15.35;;;3.83;;
23720;SDS011;42950;52.134;5.578;2023-02-18T12:37:41;15.20;;;3.63;;
23720;SDS011;42950;52.134;5.578;2023-02-18T12:40:25;15.15;;;3.08;;
23720;SDS011;42950;52.134;5.578;2023-02-18T13:08:22;18.15;;;3.22;;
23720;SDS011;42950;52.134;5.578;2023-02-18T13:13:40;18.83;;;3.30;;
23720;SDS011;42950;52.134;5.578;2023-02-18T13:16:13;13.15;;;3.00;;
23720;SDS011;42950;52.134;5.578;2023-02-18T13:18:43;18.35;;;3.78;;
23720;SDS011;42950;52.134;5.578;2023-02-18T13:21:14;14.63;;;2.45;;
23720;SDS011;42950;52.134;5.578;2023-02-18T13:26:26;11.77;;;2.90;;
23720;SDS011;42950;52.134;5.578;2023-02-18T13:39:52;17.75;;;3.15;;
23720;SDS011;42950;52.134;5.578;2023-02-18T13:50:22;17.33;;;3.28;;
23720;SDS011;42950;52.134;5.578;2023-02-18T13:55:40;12.68;;;2.97;;
23720;SDS011;42950;52.134;5.578;2023-02-18T13:58:17;9.70;;;2.45;;
23720;SDS011;42950;52.134;5.578;2023-02-18T14:06:22;11.77;;;2.65;;
23720;SDS011;42950;52.134;5.578;2023-02-18T14:08:48;8.18;;;1.90;;
23720;SDS011;42950;52.134;5.578;2023-02-18T14:13:46;10.55;;;2.13;;
23720;SDS011;42950;52.134;5.578;2023-02-18T14:16:14;9.45;;;2.40;;
23720;SDS011;42950;52.134;5.578;2023-02-18T14:23:38;6.63;;;2.72;;
23720;SDS011;42950;52.134;5.578;2023-02-18T14:26:16;5.97;;;2.70;;
23720;SDS011;42950;52.134;5.578;2023-02-18T14:39:44;9.43;;;2.83;;
23720;SDS011;42950;52.134;5.578;2023-02-18T14:50:34;7.15;;;2.38;;
23720;SDS011;42950;52.134;5.578;2023-02-18T14:53:06;11.30;;;2.40;;
23720;SDS011;42950;52.134;5.578;2023-02-18T14:55:38;8.10;;;2.17;;
23720;SDS011;42950;52.134;5.578;2023-02-18T14:58:12;8.25;;;2.33;;
23720;SDS011;42950;52.134;5.578;2023-02-18T15:01:06;10.30;;;2.85;;
23720;SDS011;42950;52.134;5.578;2023-02-18T15:03:40;8.43;;;2.72;;
23720;SDS011;42950;52.134;5.578;2023-02-18T15:06:20;8.18;;;2.92;;
23720;SDS011;42950;52.134;5.578;2023-02-18T15:09:14;7.65;;;2.47;;
23720;SDS011;42950;52.134;5.578;2023-02-18T15:11:54;7.75;;;2.25;;
23720;SDS011;42950;52.134;5.578;2023-02-18T15:14:21;6.53;;;2.10;;
23720;SDS011;42950;52.134;5.578;2023-02-18T15:16:50;10.02;;;2.50;;
23720;SDS011;42950;52.134;5.578;2023-02-18T15:19:18;7.47;;;2.00;;
23720;SDS011;42950;52.134;5.578;2023-02-18T15:21:49;6.35;;;2.00;;
23720;SDS011;42950;52.134;5.578;2023-02-18T15:26:44;6.95;;;2.45;;
23720;SDS011;42950;52.134;5.578;2023-02-18T15:31:46;9.05;;;2.30;;
23720;SDS011;42950;52.134;5.578;2023-02-18T15:34:28;8.30;;;2.30;;
23720;SDS011;42950;52.134;5.578;2023-02-18T15:37:00;8.98;;;2.72;;
23720;SDS011;42950;52.134;5.578;2023-02-18T15:39:27;7.32;;;2.65;;
23720;SDS011;42950;52.134;5.578;2023-02-18T15:41:57;6.07;;;1.92;;
23720;SDS011;42950;52.134;5.578;2023-02-18T15:44:28;11.13;;;2.72;;
23720;SDS011;42950;52.134;5.578;2023-02-18T15:47:00;10.77;;;2.40;;
23720;SDS011;42950;52.134;5.578;2023-02-18T15:49:29;6.22;;;2.60;;
23720;SDS011;42950;52.134;5.578;2023-02-18T15:51:55;9.82;;;2.17;;
23720;SDS011;42950;52.134;5.578;2023-02-18T15:54:24;11.65;;;2.40;;
23720;SDS011;42950;52.134;5.578;2023-02-18T15:56:51;11.85;;;2.58;;
23720;SDS011;42950;52.134;5.578;2023-02-18T15:59:26;10.35;;;2.72;;
23720;SDS011;42950;52.134;5.578;2023-02-18T16:04:40;16.48;;;3.38;;
23720;SDS011;42950;52.134;5.578;2023-02-18T16:07:24;11.30;;;3.72;;
23720;SDS011;42950;52.134;5.578;2023-02-18T16:10:08;12.82;;;3.15;;
23720;SDS011;42950;52.134;5.578;2023-02-18T16:12:34;14.93;;;3.60;;
23720;SDS011;42950;52.134;5.578;2023-02-18T16:15:03;19.05;;;3.97;;
23720;SDS011;42950;52.134;5.578;2023-02-18T16:17:29;14.77;;;3.53;;
23720;SDS011;42950;52.134;5.578;2023-02-18T16:19:57;14.77;;;3.70;;
23720;SDS011;42950;52.134;5.578;2023-02-18T16:22:42;14.93;;;4.90;;
23720;SDS011;42950;52.134;5.578;2023-02-18T16:27:48;12.00;;;3.67;;
23720;SDS011;42950;52.134;5.578;2023-02-18T16:30:16;15.95;;;4.05;;
23720;SDS011;42950;52.134;5.578;2023-02-18T16:32:44;17.42;;;4.20;;
23720;SDS011;42950;52.134;5.578;2023-02-18T16:35:10;16.08;;;4.43;;
23720;SDS011;42950;52.134;5.578;2023-02-18T16:37:36;17.55;;;4.22;;
23720;SDS011;42950;52.134;5.578;2023-02-18T16:40:21;13.63;;;4.25;;
23720;SDS011;42950;52.134;5.578;2023-02-18T16:42:55;15.60;;;4.85;;
23720;SDS011;42950;52.134;5.578;2023-02-18T16:45:25;13.40;;;4.78;;
23720;SDS011;42950;52.134;5.578;2023-02-18T16:47:57;17.00;;;5.00;;
23720;SDS011;42950;52.134;5.578;2023-02-18T16:50:22;19.98;;;7.32;;
23720;SDS011;42950;52.134;5.578;2023-02-18T16:52:48;15.52;;;4.95;;
23720;SDS011;42950;52.134;5.578;2023-02-18T16:55:17;20.25;;;5.53;;
23720;SDS011;42950;52.134;5.578;2023-02-18T16:57:44;18.45;;;5.13;;
23720;SDS011;42950;52.134;5.578;2023-02-18T17:00:11;19.25;;;5.65;;
23720;SDS011;42950;52.134;5.578;2023-02-18T17:02:37;21.25;;;5.22;;
23720;SDS011;42950;52.134;5.578;2023-02-18T17:05:03;21.05;;;5.65;;
23720;SDS011;42950;52.134;5.578;2023-02-18T17:07:29;18.33;;;6.00;;
23720;SDS011;42950;52.134;5.578;2023-02-18T17:09:56;22.50;;;6.82;;
23720;SDS011;42950;52.134;5.578;2023-02-18T17:12:25;20.30;;;6.35;;
23720;SDS011;42950;52.134;5.578;2023-02-18T17:14:51;20.23;;;5.78;;
23720;SDS011;42950;52.134;5.578;2023-02-18T17:17:16;21.45;;;5.93;;
23720;SDS011;42950;52.134;5.578;2023-02-18T17:19:46;20.75;;;6.43;;
23720;SDS011;42950;52.134;5.578;2023-02-18T17:22:14;19.33;;;6.70;;
23720;SDS011;42950;52.134;5.578;2023-02-18T17:24:40;21.75;;;6.72;;
23720;SDS011;42950;52.134;5.578;2023-02-18T17:27:07;21.05;;;6.78;;
23720;SDS011;42950;52.134;5.578;2023-02-18T17:29:33;25.77;;;8.27;;
23720;SDS011;42950;52.134;5.578;2023-02-18T17:31:59;23.55;;;8.13;;
23720;SDS011;42950;52.134;5.578;2023-02-18T17:34:25;20.40;;;6.85;;
23720;SDS011;42950;52.134;5.578;2023-02-18T17:36:53;18.25;;;7.40;;
23720;SDS011;42950;52.134;5.578;2023-02-18T17:39:18;18.50;;;7.15;;
23720;SDS011;42950;52.134;5.578;2023-02-18T17:41:45;22.35;;;7.05;;
23720;SDS011;42950;52.134;5.578;2023-02-18T17:44:17;23.00;;;6.82;;
23720;SDS011;42950;52.134;5.578;2023-02-18T17:46:44;18.48;;;6.35;;
23720;SDS011;42950;52.134;5.578;2023-02-18T17:49:11;22.55;;;6.70;;
23720;SDS011;42950;52.134;5.578;2023-02-18T17:51:36;21.88;;;6.78;;
23720;SDS011;42950;52.134;5.578;2023-02-18T17:54:09;20.05;;;6.55;;